createdAt,value
2022-12-08T03:47:02.752Z,4.10
2022-12-08T05:12:46.294Z,4.10
2022-12-08T05:15:13.832Z,4.10
2022-12-08T05:17:40.724Z,4.00
2022-12-08T05:20:09.275Z,4.10
2022-12-08T05:22:36.552Z,4.00
2022-12-08T05:25:04.204Z,4.00
2022-12-08T05:27:31.172Z,4.00
2022-12-08T05:29:58.357Z,4.00
2022-12-08T05:32:25.412Z,4.00
2022-12-08T05:34:52.744Z,4.00
2022-12-08T05:37:19.951Z,4.00
2022-12-08T05:39:47.202Z,4.00
2022-12-08T05:42:14.508Z,4.00
2022-12-08T05:44:41.741Z,4.00
2022-12-08T05:47:08.621Z,4.00
2022-12-08T05:49:35.829Z,4.00
2022-12-08T05:52:03.044Z,4.00
2022-12-08T05:54:30.289Z,4.00
2022-12-08T05:56:57.252Z,4.00
2022-12-08T06:04:29.665Z,4.00
2022-12-08T06:06:56.906Z,4.00
2022-12-08T06:09:24.046Z,3.90
2022-12-08T06:11:51.306Z,3.90
2022-12-08T06:14:18.321Z,3.90
2022-12-08T06:16:45.611Z,3.90
2022-12-08T07:40:45.973Z,4.20
2022-12-08T07:43:13.462Z,4.20
2022-12-08T07:46:31.625Z,4.20
2022-12-08T07:54:12.585Z,4.30
2022-12-08T08:11:26.672Z,4.60
2022-12-08T08:13:53.651Z,4.60
2022-12-08T08:16:21.475Z,4.60
2022-12-08T08:18:51.123Z,4.70
2022-12-08T08:24:07.612Z,4.70
2022-12-08T08:26:36.585Z,4.80
2022-12-08T08:29:05.183Z,4.80
2022-12-08T08:31:32.564Z,4.80
2022-12-08T08:34:04.807Z,4.90
2022-12-08T08:36:33.166Z,4.90
2022-12-08T08:39:00.165Z,4.90
2022-12-08T08:41:27.368Z,4.90
2022-12-08T08:43:54.985Z,5.00
2022-12-08T08:46:22.297Z,5.00
2022-12-08T08:48:49.404Z,5.10
2022-12-08T08:51:16.738Z,5.10
2022-12-08T08:53:43.786Z,5.10
2022-12-08T08:56:15.672Z,5.10
2022-12-08T08:58:43.003Z,5.20
2022-12-08T09:01:20.697Z,5.20
2022-12-08T10:19:18.719Z,6.10
2022-12-08T10:21:46.266Z,6.10
2022-12-08T10:24:40.675Z,6.10
2022-12-08T10:27:12.491Z,6.10
2022-12-08T10:29:41.017Z,6.10
2022-12-08T10:32:20.246Z,6.10
2022-12-08T10:35:06.080Z,6.10
2022-12-08T10:37:34.473Z,6.10
2022-12-08T10:40:03.091Z,6.10
2022-12-08T10:42:46.938Z,6.10
2022-12-08T10:45:22.140Z,6.10
2022-12-08T10:48:13.179Z,6.10
2022-12-08T10:50:52.696Z,6.10
2022-12-08T10:53:23.408Z,6.10
2022-12-08T10:56:02.715Z,6.10
2022-12-08T10:59:05.614Z,6.10
2022-12-08T11:01:39.980Z,6.20
2022-12-08T12:00:22.753Z,6.40
2022-12-08T12:03:06.522Z,6.40
2022-12-08T12:06:24.247Z,6.50
2022-12-08T12:10:16.795Z,6.50
2022-12-08T13:01:07.346Z,6.50
2022-12-08T13:37:13.217Z,6.40
2022-12-08T13:39:40.490Z,6.30
2022-12-08T13:42:52.065Z,6.30
2022-12-08T13:45:58.910Z,6.40
2022-12-08T14:03:19.708Z,6.00
2022-12-08T14:06:11.588Z,6.10
2022-12-08T14:09:27.747Z,6.20
2022-12-08T14:12:19.623Z,6.20
2022-12-08T14:25:54.062Z,6.20
2022-12-08T14:28:21.860Z,6.20
2022-12-08T14:30:50.184Z,6.20
2022-12-08T14:33:17.880Z,6.10
2022-12-08T14:35:56.131Z,6.10
2022-12-08T14:38:26.029Z,6.00
2022-12-08T14:41:09.344Z,6.10
2022-12-08T14:43:36.871Z,6.00
2022-12-08T14:46:20.349Z,6.00
2022-12-08T14:48:48.173Z,6.00
2022-12-08T14:51:23.775Z,6.00
2022-12-08T14:54:13.249Z,6.00
2022-12-08T14:56:48.553Z,6.00
2022-12-08T14:59:31.155Z,6.00
2022-12-08T15:02:16.065Z,6.00
2022-12-08T15:04:48.765Z,6.00
2022-12-08T15:07:21.716Z,6.00
2022-12-08T16:46:57.268Z,5.70
2022-12-08T16:49:24.897Z,5.60
2022-12-08T16:51:51.796Z,5.00
2022-12-08T16:54:19.068Z,4.50
2022-12-08T16:56:45.965Z,4.30
2022-12-08T16:59:13.236Z,4.50
2022-12-08T17:01:40.564Z,4.80
2022-12-08T17:04:30.483Z,5.00
2022-12-08T17:06:54.776Z,5.20
2022-12-08T17:09:22.048Z,5.30
2022-12-08T17:11:52.359Z,5.40
2022-12-08T17:14:20.171Z,5.40
2022-12-08T17:16:47.360Z,5.40
2022-12-08T17:19:20.724Z,5.30
2022-12-08T17:21:52.855Z,5.20
2022-12-08T17:24:22.194Z,5.30
2022-12-08T17:26:51.532Z,5.30
2022-12-08T17:29:18.727Z,5.40
2022-12-08T17:31:46.194Z,5.30
2022-12-08T17:34:13.746Z,5.20
2022-12-08T17:36:40.736Z,5.20
2022-12-08T17:39:13.343Z,5.30
2022-12-08T17:41:43.494Z,5.20
2022-12-08T17:44:19.130Z,5.20
2022-12-08T17:46:52.428Z,5.20
2022-12-08T17:49:25.242Z,5.20
2022-12-08T17:51:55.719Z,5.30
2022-12-08T17:54:23.319Z,5.30
2022-12-08T17:56:50.449Z,5.30
2022-12-08T17:59:18.329Z,5.10
2022-12-08T18:01:45.585Z,4.60
2022-12-08T18:04:13.311Z,4.70
2022-12-08T18:06:40.692Z,4.90
2022-12-08T18:09:08.097Z,5.10
2022-12-08T18:11:46.296Z,5.20
2022-12-08T18:14:15.653Z,5.20
2022-12-08T18:16:45.639Z,5.20
2022-12-08T18:19:14.957Z,5.30
2022-12-08T18:21:43.811Z,5.30
2022-12-08T18:24:23.278Z,5.30
2022-12-08T18:26:55.175Z,5.20
2022-12-08T18:29:23.477Z,5.20
2022-12-08T18:31:51.941Z,5.20
2022-12-08T18:34:19.245Z,5.20
2022-12-08T18:36:46.904Z,5.20
2022-12-08T18:39:28.611Z,5.20
2022-12-08T18:41:58.533Z,5.20
2022-12-08T18:44:25.864Z,5.20
2022-12-08T18:46:52.855Z,5.20
2022-12-08T18:49:20.678Z,5.20
2022-12-08T18:51:47.934Z,5.20
2022-12-08T18:54:15.200Z,5.20
2022-12-08T18:56:42.172Z,5.20
2022-12-08T18:59:12.463Z,5.20
2022-12-08T19:01:40.657Z,5.20
2022-12-08T19:04:28.085Z,5.20
2022-12-08T19:06:56.972Z,5.20
2022-12-08T19:09:26.856Z,5.20
2022-12-08T19:11:55.329Z,5.20
2022-12-08T19:14:27.796Z,5.20
2022-12-08T19:16:58.999Z,5.20
2022-12-08T19:19:27.878Z,5.20
2022-12-08T19:21:55.852Z,5.20
2022-12-08T20:34:17.282Z,5.00
2022-12-08T20:36:45.044Z,5.10
2022-12-08T20:39:15.660Z,5.10
2022-12-08T20:41:44.900Z,5.00
2022-12-08T20:44:12.629Z,5.00
2022-12-08T20:46:42.779Z,5.00
2022-12-08T20:49:13.694Z,5.00
2022-12-08T20:51:41.863Z,5.00
2022-12-08T20:54:10.909Z,5.00
2022-12-08T20:56:47.949Z,5.00
2022-12-08T20:59:17.850Z,5.00
2022-12-08T21:01:45.231Z,5.00
2022-12-08T21:04:13.514Z,5.00
2022-12-08T21:06:40.923Z,5.10
2022-12-08T21:09:08.748Z,5.00
2022-12-08T21:11:36.231Z,5.10
2022-12-08T21:14:04.553Z,5.00
2022-12-08T21:16:31.799Z,5.10
2022-12-08T21:18:59.474Z,5.10
2022-12-08T21:21:26.548Z,5.00
2022-12-08T21:23:54.182Z,5.10
2022-12-08T21:26:25.830Z,5.00
2022-12-08T21:28:54.744Z,5.00
2022-12-08T21:31:22.297Z,5.00
2022-12-08T22:15:40.289Z,5.00
2022-12-08T23:24:51.096Z,5.00
